sensor_id;sensor_type;location;lat;lon;timestamp;pressure;altitude;pressure_sealevel;temperature;humidity
61026;BME280;46911;32.650;-16.902;2023-05-12T00:01:08;101854.00;;;18.61;72.00
61026;BME280;46911;32.650;-16.902;2023-05-12T00:03:09;101856.19;;;18.67;72.10
61026;BME280;46911;32.650;-16.902;2023-05-12T00:05:12;101860.47;;;18.70;72.06
61026;BME280;46911;32.650;-16.902;2023-05-12T00:07:16;101842.84;;;18.54;72.20
61026;BME280;46911;32.650;-16.902;2023-05-12T00:09:19;101850.72;;;18.57;72.24
61026;BME280;46911;32.650;-16.902;2023-05-12T00:11:23;101826.81;;;18.42;72.59
61026;BME280;46911;32.650;-16.902;2023-05-12T00:13:29;101855.16;;;18.47;72.92
61026;BME280;46911;32.650;-16.902;2023-05-12T00:15:33;101835.81;;;18.31;72.90
61026;BME280;46911;32.650;-16.902;2023-05-12T00:17:34;101835.81;;;18.31;73.50
61026;BME280;46911;32.650;-16.902;2023-05-12T00:19:37;101845.47;;;18.45;73.84
61026;BME280;46911;32.650;-16.902;2023-05-12T00:21:43;101838.09;;;18.47;73.07
61026;BME280;46911;32.650;-16.902;2023-05-12T00:23:49;101829.53;;;18.42;72.89
61026;BME280;46911;32.650;-16.902;2023-05-12T00:25:52;101826.69;;;18.43;72.73
61026;BME280;46911;32.650;-16.902;2023-05-12T00:27:56;101832.81;;;18.45;72.55
61026;BME280;46911;32.650;-16.902;2023-05-12T00:29:57;101822.06;;;18.34;72.58
61026;BME280;46911;32.650;-16.902;2023-05-12T00:32:01;101836.03;;;18.39;72.59
61026;BME280;46911;32.650;-16.902;2023-05-12T00:34:06;101819.72;;;18.29;72.84
61026;BME280;46911;32.650;-16.902;2023-05-12T00:36:10;101840.47;;;18.40;72.66
61026;BME280;46911;32.650;-16.902;2023-05-12T00:38:13;101830.03;;;18.35;72.44
61026;BME280;46911;32.650;-16.902;2023-05-12T00:40:23;101837.41;;;18.33;72.44
61026;BME280;46911;32.650;-16.902;2023-05-12T00:42:24;101833.22;;;18.29;72.17
61026;BME280;46911;32.650;-16.902;2023-05-12T00:44:27;101818.06;;;18.17;72.13
61026;BME280;46911;32.650;-16.902;2023-05-12T00:46:28;101818.06;;;18.17;72.36
61026;BME280;46911;32.650;-16.902;2023-05-12T00:48:30;101823.59;;;18.15;72.87
61026;BME280;46911;32.650;-16.902;2023-05-12T00:50:31;101832.66;;;18.26;73.28
61026;BME280;46911;32.650;-16.902;2023-05-12T00:52:35;101814.63;;;18.15;73.26
61026;BME280;46911;32.650;-16.902;2023-05-12T00:54:36;101783.88;;;17.95;73.34
61026;BME280;46911;32.650;-16.902;2023-05-12T00:56:38;101815.47;;;18.15;73.25
61026;BME280;46911;32.650;-16.902;2023-05-12T00:58:41;101823.94;;;18.22;73.44
61026;BME280;46911;32.650;-16.902;2023-05-12T01:00:42;101828.09;;;18.26;73.40
61026;BME280;46911;32.650;-16.902;2023-05-12T01:02:43;101825.78;;;18.21;73.83
61026;BME280;46911;32.650;-16.902;2023-05-12T01:04:44;101809.03;;;18.06;74.07
61026;BME280;46911;32.650;-16.902;2023-05-12T01:06:54;101805.31;;;18.07;74.09
61026;BME280;46911;32.650;-16.902;2023-05-12T01:08:56;101827.13;;;18.16;74.38
61026;BME280;46911;32.650;-16.902;2023-05-12T01:10:59;101816.09;;;18.19;74.57
61026;BME280;46911;32.650;-16.902;2023-05-12T01:13:00;101798.81;;;18.10;74.93
61026;BME280;46911;32.650;-16.902;2023-05-12T01:15:07;101790.22;;;18.05;74.72
61026;BME280;46911;32.650;-16.902;2023-05-12T01:17:17;101795.25;;;18.10;74.31
61026;BME280;46911;32.650;-16.902;2023-05-12T01:21:38;101792.56;;;18.10;74.05
61026;BME280;46911;32.650;-16.902;2023-05-12T01:23:48;101804.06;;;18.23;74.33
61026;BME280;46911;32.650;-16.902;2023-05-12T01:25:51;101781.63;;;18.11;74.18
61026;BME280;46911;32.650;-16.902;2023-05-12T01:27:55;101793.16;;;18.13;74.32
61026;BME280;46911;32.650;-16.902;2023-05-12T01:29:58;101797.28;;;18.29;74.39
61026;BME280;46911;32.650;-16.902;2023-05-12T01:32:10;101793.50;;;18.20;74.43
61026;BME280;46911;32.650;-16.902;2023-05-12T01:34:20;101783.81;;;18.17;74.49
61026;BME280;46911;32.650;-16.902;2023-05-12T01:36:24;101767.91;;;18.03;74.48
61026;BME280;46911;32.650;-16.902;2023-05-12T01:38:32;101765.34;;;18.01;74.63
61026;BME280;46911;32.650;-16.902;2023-05-12T01:40:38;101780.78;;;18.11;74.82
61026;BME280;46911;32.650;-16.902;2023-05-12T01:42:41;101785.31;;;18.10;74.70
61026;BME280;46911;32.650;-16.902;2023-05-12T01:44:43;101760.19;;;17.98;74.71
61026;BME280;46911;32.650;-16.902;2023-05-12T01:46:44;101765.34;;;18.01;74.55
61026;BME280;46911;32.650;-16.902;2023-05-12T01:48:45;101776.22;;;18.11;74.33
61026;BME280;46911;32.650;-16.902;2023-05-12T01:50:47;101772.91;;;18.07;74.15
61026;BME280;46911;32.650;-16.902;2023-05-12T01:52:54;101774.72;;;18.18;73.68
61026;BME280;46911;32.650;-16.902;2023-05-12T01:54:55;101760.75;;;18.13;73.57
61026;BME280;46911;32.650;-16.902;2023-05-12T01:57:04;101780.47;;;18.25;73.30
61026;BME280;46911;32.650;-16.902;2023-05-12T01:59:09;101761.88;;;18.11;73.35
61026;BME280;46911;32.650;-16.902;2023-05-12T02:01:13;101757.44;;;18.10;73.17
61026;BME280;46911;32.650;-16.902;2023-05-12T02:03:20;101765.03;;;18.16;73.01
61026;BME280;46911;32.650;-16.902;2023-05-12T02:05:21;101754.75;;;18.10;72.86
61026;BME280;46911;32.650;-16.902;2023-05-12T02:07:27;101775.19;;;18.23;72.77
61026;BME280;46911;32.650;-16.902;2023-05-12T02:09:38;101765.63;;;18.19;72.43
61026;BME280;46911;32.650;-16.902;2023-05-12T02:11:42;101770.19;;;18.19;72.68
61026;BME280;46911;32.650;-16.902;2023-05-12T02:13:43;101763.91;;;18.18;72.34
61026;BME280;46911;32.650;-16.902;2023-05-12T02:15:47;101757.41;;;18.21;72.28
61026;BME280;46911;32.650;-16.902;2023-05-12T02:17:48;101739.66;;;18.07;72.58
61026;BME280;46911;32.650;-16.902;2023-05-12T02:19:59;101750.19;;;18.10;72.66
61026;BME280;46911;32.650;-16.902;2023-05-12T02:22:00;101754.16;;;18.06;73.05
61026;BME280;46911;32.650;-16.902;2023-05-12T02:24:01;101747.41;;;18.00;73.36
61026;BME280;46911;32.650;-16.902;2023-05-12T02:26:02;101747.69;;;17.97;73.28
61026;BME280;46911;32.650;-16.902;2023-05-12T02:28:03;101734.91;;;17.88;73.68
61026;BME280;46911;32.650;-16.902;2023-05-12T02:30:07;101749.38;;;17.98;73.88
61026;BME280;46911;32.650;-16.902;2023-05-12T02:32:10;101739.47;;;17.99;73.76
61026;BME280;46911;32.650;-16.902;2023-05-12T02:34:11;101726.34;;;17.83;74.14
61026;BME280;46911;32.650;-16.902;2023-05-12T02:36:14;101750.25;;;17.99;74.25
61026;BME280;46911;32.650;-16.902;2023-05-12T02:38:15;101743.97;;;17.98;74.16
61026;BME280;46911;32.650;-16.902;2023-05-12T02:40:19;101731.34;;;17.87;74.20
61026;BME280;46911;32.650;-16.902;2023-05-12T02:42:20;101751.84;;;18.01;74.15
61026;BME280;46911;32.650;-16.902;2023-05-12T02:44:24;101736.50;;;18.02;74.17
61026;BME280;46911;32.650;-16.902;2023-05-12T02:46:25;101729.13;;;18.04;74.50
61026;BME280;46911;32.650;-16.902;2023-05-12T02:48:29;101743.31;;;18.17;74.18
61026;BME280;46911;32.650;-16.902;2023-05-12T02:50:30;101747.72;;;18.18;74.05
61026;BME280;46911;32.650;-16.902;2023-05-12T02:52:31;101716.47;;;18.04;74.39
61026;BME280;46911;32.650;-16.902;2023-05-12T02:54:34;101735.31;;;18.16;74.33
61026;BME280;46911;32.650;-16.902;2023-05-12T02:56:37;101732.53;;;18.06;74.46
61026;BME280;46911;32.650;-16.902;2023-05-12T02:58:38;101721.28;;;18.01;74.31
61026;BME280;46911;32.650;-16.902;2023-05-12T03:00:42;101740.28;;;18.11;74.49
61026;BME280;46911;32.650;-16.902;2023-05-12T03:02:45;101743.34;;;18.06;74.53
61026;BME280;46911;32.650;-16.902;2023-05-12T03:04:50;101732.06;;;18.01;74.92
61026;BME280;46911;32.650;-16.902;2023-05-12T03:06:55;101733.91;;;18.00;74.79
61026;BME280;46911;32.650;-16.902;2023-05-12T03:08:59;101745.56;;;18.01;75.11
61026;BME280;46911;32.650;-16.902;2023-05-12T03:11:02;101680.53;;;17.60;75.26
61026;BME280;46911;32.650;-16.902;2023-05-12T03:13:03;101719.97;;;17.84;75.40
61026;BME280;46911;32.650;-16.902;2023-05-12T03:15:05;101723.78;;;17.81;75.54
61026;BME280;46911;32.650;-16.902;2023-05-12T03:17:06;101734.19;;;17.86;75.38
61026;BME280;46911;32.650;-16.902;2023-05-12T03:19:09;101721.09;;;17.70;75.50
61026;BME280;46911;32.650;-16.902;2023-05-12T03:21:10;101719.63;;;17.66;75.85
61026;BME280;46911;32.650;-16.902;2023-05-12T03:23:11;101716.81;;;17.67;75.91
61026;BME280;46911;32.650;-16.902;2023-05-12T03:25:13;101733.97;;;17.78;75.91
61026;BME280;46911;32.650;-16.902;2023-05-12T03:27:17;101723.06;;;17.68;76.04
61026;BME280;46911;32.650;-16.902;2023-05-12T03:29:20;101725.63;;;17.69;76.28
61026;BME280;46911;32.650;-16.902;2023-05-12T03:31:23;101727.38;;;17.70;76.46
61026;BME280;46911;32.650;-16.902;2023-05-12T03:33:28;101728.81;;;17.74;76.42
61026;BME280;46911;32.650;-16.902;2023-05-12T03:35:29;101728.22;;;17.71;76.33
61026;BME280;46911;32.650;-16.902;2023-05-12T03:37:31;101729.59;;;17.65;76.48
61026;BME280;46911;32.650;-16.902;2023-05-12T03:39:32;101709.25;;;17.50;76.47
61026;BME280;46911;32.650;-16.902;2023-05-12T03:41:33;101724.19;;;17.54;76.52
61026;BME280;46911;32.650;-16.902;2023-05-12T03:43:34;101711.94;;;17.61;76.85
61026;BME280;46911;32.650;-16.902;2023-05-12T03:45:36;101723.44;;;17.63;76.93
61026;BME280;46911;32.650;-16.902;2023-05-12T03:47:37;101733.47;;;17.72;76.91
61026;BME280;46911;32.650;-16.902;2023-05-12T03:49:40;101737.63;;;17.77;76.86
61026;BME280;46911;32.650;-16.902;2023-05-12T03:51:41;101684.00;;;17.51;76.80
61026;BME280;46911;32.650;-16.902;2023-05-12T03:53:46;101734.03;;;17.87;76.26
61026;BME280;46911;32.650;-16.902;2023-05-12T03:55:49;101720.59;;;17.76;76.39
61026;BME280;46911;32.650;-16.902;2023-05-12T03:57:57;101723.28;;;17.76;76.30
61026;BME280;46911;32.650;-16.902;2023-05-12T04:00:01;101720.81;;;17.73;76.43
61026;BME280;46911;32.650;-16.902;2023-05-12T04:02:05;101735.53;;;17.80;76.44
61026;BME280;46911;32.650;-16.902;2023-05-12T04:04:09;101719.03;;;17.62;76.59
61026;BME280;46911;32.650;-16.902;2023-05-12T04:06:13;101738.25;;;17.69;76.68
61026;BME280;46911;32.650;-16.902;2023-05-12T04:08:17;101734.00;;;17.55;76.98
61026;BME280;46911;32.650;-16.902;2023-05-12T04:10:18;101721.75;;;17.51;77.36
61026;BME280;46911;32.650;-16.902;2023-05-12T04:12:18;101738.78;;;17.51;77.33
61026;BME280;46911;32.650;-16.902;2023-05-12T04:14:19;101748.81;;;17.61;77.59
61026;BME280;46911;32.650;-16.902;2023-05-12T04:16:23;101738.28;;;17.46;77.62
61026;BME280;46911;32.650;-16.902;2023-05-12T04:18:26;101746.75;;;17.53;77.70
61026;BME280;46911;32.650;-16.902;2023-05-12T04:20:27;101735.72;;;17.45;77.70
61026;BME280;46911;32.650;-16.902;2023-05-12T04:22:28;101756.56;;;17.54;77.79
61026;BME280;46911;32.650;-16.902;2023-05-12T04:24:32;101753.25;;;17.50;77.99
61026;BME280;46911;32.650;-16.902;2023-05-12T04:26:33;101756.06;;;17.49;78.09
61026;BME280;46911;32.650;-16.902;2023-05-12T04:28:42;101748.09;;;17.47;78.05
61026;BME280;46911;32.650;-16.902;2023-05-12T04:30:52;101757.19;;;17.46;78.53
61026;BME280;46911;32.650;-16.902;2023-05-12T04:32:57;101748.50;;;17.43;78.55
61026;BME280;46911;32.650;-16.902;2023-05-12T04:34:58;101748.84;;;17.38;78.69
61026;BME280;46911;32.650;-16.902;2023-05-12T04:36:59;101729.75;;;17.30;78.75
61026;BME280;46911;32.650;-16.902;2023-05-12T04:39:03;101743.72;;;17.35;78.92
61026;BME280;46911;32.650;-16.902;2023-05-12T04:41:06;101708.78;;;17.11;79.02
61026;BME280;46911;32.650;-16.902;2023-05-12T04:43:08;101749.47;;;17.30;79.11
61026;BME280;46911;32.650;-16.902;2023-05-12T04:45:12;101738.31;;;17.23;79.31
61026;BME280;46911;32.650;-16.902;2023-05-12T04:47:16;101738.44;;;17.22;79.66
61026;BME280;46911;32.650;-16.902;2023-05-12T04:49:22;101755.72;;;17.31;79.71
61026;BME280;46911;32.650;-16.902;2023-05-12T04:51:23;101748.63;;;17.30;79.87
61026;BME280;46911;32.650;-16.902;2023-05-12T04:53:24;101730.34;;;17.22;79.97
61026;BME280;46911;32.650;-16.902;2023-05-12T04:55:30;101743.59;;;17.36;79.86
61026;BME280;46911;32.650;-16.902;2023-05-12T04:57:32;101740.28;;;17.33;79.90
61026;BME280;46911;32.650;-16.902;2023-05-12T04:59:35;101742.72;;;17.24;80.01
61026;BME280;46911;32.650;-16.902;2023-05-12T05:01:41;101752.91;;;17.32;80.07
61026;BME280;46911;32.650;-16.902;2023-05-12T05:03:42;101741.75;;;17.26;80.01
61026;BME280;46911;32.650;-16.902;2023-05-12T05:05:43;101747.91;;;17.28;80.27
61026;BME280;46911;32.650;-16.902;2023-05-12T05:07:44;101737.72;;;17.20;80.29
61026;BME280;46911;32.650;-16.902;2023-05-12T05:09:45;101735.50;;;17.25;80.02
61026;BME280;46911;32.650;-16.902;2023-05-12T05:11:49;101762.47;;;17.36;80.05
61026;BME280;46911;32.650;-16.902;2023-05-12T05:13:55;101737.47;;;17.23;79.90
61026;BME280;46911;32.650;-16.902;2023-05-12T05:15:59;101747.38;;;17.34;80.00
61026;BME280;46911;32.650;-16.902;2023-05-12T05:18:06;101739.91;;;17.26;79.84
61026;BME280;46911;32.650;-16.902;2023-05-12T05:20:12;101751.06;;;17.33;80.05
61026;BME280;46911;32.650;-16.902;2023-05-12T05:22:13;101737.72;;;17.20;79.84
61026;BME280;46911;32.650;-16.902;2023-05-12T05:24:18;101745.28;;;17.26;80.01
61026;BME280;46911;32.650;-16.902;2023-05-12T05:26:22;101731.97;;;17.13;80.17
61026;BME280;46911;32.650;-16.902;2023-05-12T05:28:25;101729.13;;;17.15;80.07
61026;BME280;46911;32.650;-16.902;2023-05-12T05:30:28;101755.38;;;17.24;80.29
61026;BME280;46911;32.650;-16.902;2023-05-12T05:32:29;101733.28;;;17.07;80.21
61026;BME280;46911;32.650;-16.902;2023-05-12T05:34:32;101745.56;;;17.12;80.05
61026;BME280;46911;32.650;-16.902;2023-05-12T05:36:34;101744.44;;;17.14;79.87
61026;BME280;46911;32.650;-16.902;2023-05-12T05:38:37;101733.78;;;17.13;79.54
61026;BME280;46911;32.650;-16.902;2023-05-12T05:40:38;101746.16;;;17.15;79.89
61026;BME280;46911;32.650;-16.902;2023-05-12T05:42:39;101740.41;;;17.09;79.96
61026;BME280;46911;32.650;-16.902;2023-05-12T05:44:42;101739.69;;;17.06;79.97
61026;BME280;46911;32.650;-16.902;2023-05-12T05:46:43;101761.09;;;17.19;79.83
61026;BME280;46911;32.650;-16.902;2023-05-12T05:48:46;101754.88;;;17.19;79.66
61026;BME280;46911;32.650;-16.902;2023-05-12T05:50:50;101745.94;;;17.18;79.60
61026;BME280;46911;32.650;-16.902;2023-05-12T05:52:52;101765.63;;;17.30;79.49
61026;BME280;46911;32.650;-16.902;2023-05-12T05:54:54;101741.38;;;17.19;79.50
61026;BME280;46911;32.650;-16.902;2023-05-12T05:56:59;101757.69;;;17.29;79.65
61026;BME280;46911;32.650;-16.902;2023-05-12T05:59:02;101750.19;;;17.21;79.45
61026;BME280;46911;32.650;-16.902;2023-05-12T06:01:04;101749.22;;;17.22;79.52
61026;BME280;46911;32.650;-16.902;2023-05-12T06:03:06;101770.31;;;17.28;79.51
61026;BME280;46911;32.650;-16.902;2023-05-12T06:05:07;101764.16;;;17.26;79.76
61026;BME280;46911;32.650;-16.902;2023-05-12T06:07:08;101761.47;;;17.15;79.91
61026;BME280;46911;32.650;-16.902;2023-05-12T06:09:12;101777.53;;;17.16;80.12
61026;BME280;46911;32.650;-16.902;2023-05-12T06:11:19;101764.19;;;17.15;80.11
61026;BME280;46911;32.650;-16.902;2023-05-12T06:13:20;101766.25;;;17.11;80.30
61026;BME280;46911;32.650;-16.902;2023-05-12T06:15:24;101758.75;;;17.03;80.49
61026;BME280;46911;32.650;-16.902;2023-05-12T06:17:30;101718.06;;;16.84;80.24
61026;BME280;46911;32.650;-16.902;2023-05-12T06:19:36;101749.22;;;16.99;80.59
61026;BME280;46911;32.650;-16.902;2023-05-12T06:21:37;101762.94;;;17.07;80.71
61026;BME280;46911;32.650;-16.902;2023-05-12T06:23:41;101749.47;;;16.96;80.62
61026;BME280;46911;32.650;-16.902;2023-05-12T06:25:42;101741.50;;;17.06;80.81
61026;BME280;46911;32.650;-16.902;2023-05-12T06:27:45;101749.00;;;17.02;80.70
61026;BME280;46911;32.650;-16.902;2023-05-12T06:29:46;101776.94;;;17.24;80.51
61026;BME280;46911;32.650;-16.902;2023-05-12T06:31:50;101746.28;;;17.14;80.68
61026;BME280;46911;32.650;-16.902;2023-05-12T06:33:53;101761.97;;;17.20;80.61
61026;BME280;46911;32.650;-16.902;2023-05-12T06:35:56;101770.94;;;17.32;80.65
61026;BME280;46911;32.650;-16.902;2023-05-12T06:37:59;101776.06;;;17.35;80.60
61026;BME280;46911;32.650;-16.902;2023-05-12T06:40:02;101761.38;;;17.28;80.59
61026;BME280;46911;32.650;-16.902;2023-05-12T06:42:07;101754.84;;;17.30;80.30
61026;BME280;46911;32.650;-16.902;2023-05-12T06:44:14;101770.66;;;17.46;80.48
61026;BME280;46911;32.650;-16.902;2023-05-12T06:46:16;101761.84;;;17.44;80.28
61026;BME280;46911;32.650;-16.902;2023-05-12T06:48:17;101768.47;;;17.51;80.22
61026;BME280;46911;32.650;-16.902;2023-05-12T06:50:18;101760.97;;;17.55;80.28
61026;BME280;46911;32.650;-16.902;2023-05-12T06:52:25;101757.53;;;17.53;80.28
61026;BME280;46911;32.650;-16.902;2023-05-12T06:54:26;101773.84;;;17.63;80.10
61026;BME280;46911;32.650;-16.902;2023-05-12T06:56:27;101774.09;;;17.71;80.03
61026;BME280;46911;32.650;-16.902;2023-05-12T06:58:31;101760.84;;;17.68;79.65
61026;BME280;46911;32.650;-16.902;2023-05-12T07:00:34;101760.31;;;17.74;79.54
61026;BME280;46911;32.650;-16.902;2023-05-12T07:02:35;101777.34;;;17.86;79.42
61026;BME280;46911;32.650;-16.902;2023-05-12T07:04:36;101751.75;;;17.80;79.19
61026;BME280;46911;32.650;-16.902;2023-05-12T07:06:41;101776.28;;;18.00;78.69
61026;BME280;46911;32.650;-16.902;2023-05-12T07:08:48;101774.63;;;18.09;78.21
61026;BME280;46911;32.650;-16.902;2023-05-12T07:10:51;101788.97;;;18.20;77.59
61026;BME280;46911;32.650;-16.902;2023-05-12T07:12:52;101778.38;;;18.29;77.74
61026;BME280;46911;32.650;-16.902;2023-05-12T07:14:55;101780.28;;;18.38;76.97
61026;BME280;46911;32.650;-16.902;2023-05-12T07:16:59;101777.56;;;18.49;76.51
61026;BME280;46911;32.650;-16.902;2023-05-12T07:19:00;101777.88;;;18.56;75.49
61026;BME280;46911;32.650;-16.902;2023-05-12T07:21:07;101776.50;;;18.62;75.10
61026;BME280;46911;32.650;-16.902;2023-05-12T07:23:09;101771.81;;;18.64;74.83
61026;BME280;46911;32.650;-16.902;2023-05-12T07:25:14;101755.50;;;18.65;75.00
61026;BME280;46911;32.650;-16.902;2023-05-12T07:27:15;101755.22;;;18.68;74.18
61026;BME280;46911;32.650;-16.902;2023-05-12T07:29:21;101777.72;;;18.90;73.84
61026;BME280;46911;32.650;-16.902;2023-05-12T07:31:24;101767.50;;;18.94;73.60
61026;BME280;46911;32.650;-16.902;2023-05-12T07:33:28;101773.16;;;18.90;73.32
61026;BME280;46911;32.650;-16.902;2023-05-12T07:35:29;101779.94;;;19.06;72.87
61026;BME280;46911;32.650;-16.902;2023-05-12T07:37:30;101781.00;;;19.15;72.16
61026;BME280;46911;32.650;-16.902;2023-05-12T07:39:36;101779.44;;;19.22;71.65
61026;BME280;46911;32.650;-16.902;2023-05-12T07:41:40;101770.34;;;19.23;71.30
61026;BME280;46911;32.650;-16.902;2023-05-12T07:43:44;101773.41;;;19.39;70.56
61026;BME280;46911;32.650;-16.902;2023-05-12T07:45:48;101776.25;;;19.38;70.11
61026;BME280;46911;32.650;-16.902;2023-05-12T07:47:49;101770.00;;;19.37;69.85
61026;BME280;46911;32.650;-16.902;2023-05-12T07:49:51;101785.81;;;19.52;69.86
61026;BME280;46911;32.650;-16.902;2023-05-12T07:51:51;101789.44;;;19.62;69.45
61026;BME280;46911;32.650;-16.902;2023-05-12T07:53:55;101795.88;;;19.71;69.09
61026;BME280;46911;32.650;-16.902;2023-05-12T07:55:57;101794.47;;;19.77;69.04
61026;BME280;46911;32.650;-16.902;2023-05-12T07:57:58;101782.06;;;19.74;69.06
61026;BME280;46911;32.650;-16.902;2023-05-12T08:00:02;101783.19;;;19.71;68.99
61026;BME280;46911;32.650;-16.902;2023-05-12T08:02:13;101776.22;;;19.79;68.90
61026;BME280;46911;32.650;-16.902;2023-05-12T08:04:14;101801.66;;;19.97;68.97
61026;BME280;46911;32.650;-16.902;2023-05-12T08:06:18;101798.56;;;20.12;67.91
61026;BME280;46911;32.650;-16.902;2023-05-12T08:08:19;101788.28;;;20.25;67.85
61026;BME280;46911;32.650;-16.902;2023-05-12T08:10:19;101791.00;;;20.35;67.16
61026;BME280;46911;32.650;-16.902;2023-05-12T08:12:20;101784.88;;;20.43;67.32
61026;BME280;46911;32.650;-16.902;2023-05-12T08:14:21;101790.00;;;20.55;66.59
61026;BME280;46911;32.650;-16.902;2023-05-12T08:16:25;101782.88;;;20.54;66.40
61026;BME280;46911;32.650;-16.902;2023-05-12T08:18:28;101775.31;;;20.48;66.75
61026;BME280;46911;32.650;-16.902;2023-05-12T08:20:29;101787.28;;;20.65;66.30
61026;BME280;46911;32.650;-16.902;2023-05-12T08:22:31;101792.00;;;20.53;66.72
61026;BME280;46911;32.650;-16.902;2023-05-12T08:24:32;101791.44;;;20.60;66.73
61026;BME280;46911;32.650;-16.902;2023-05-12T08:26:35;101770.59;;;20.60;66.22
61026;BME280;46911;32.650;-16.902;2023-05-12T08:28:36;101795.56;;;20.83;64.67
61026;BME280;46911;32.650;-16.902;2023-05-12T08:30:40;101795.00;;;20.80;65.05
61026;BME280;46911;32.650;-16.902;2023-05-12T08:32:41;101798.56;;;20.80;65.09
61026;BME280;46911;32.650;-16.902;2023-05-12T08:34:42;101795.56;;;20.73;65.53
61026;BME280;46911;32.650;-16.902;2023-05-12T08:36:43;101787.44;;;20.54;66.32
61026;BME280;46911;32.650;-16.902;2023-05-12T08:38:43;101784.88;;;20.62;65.91
61026;BME280;46911;32.650;-16.902;2023-05-12T08:43:23;101799.69;;;20.68;65.61
61026;BME280;46911;32.650;-16.902;2023-05-12T08:45:25;101790.44;;;20.80;64.94
61026;BME280;46911;32.650;-16.902;2023-05-12T08:47:32;101805.28;;;21.33;64.38
61026;BME280;46911;32.650;-16.902;2023-05-12T08:49:39;101788.78;;;21.17;64.27
61026;BME280;46911;32.650;-16.902;2023-05-12T08:51:46;101789.50;;;21.56;63.16
61026;BME280;46911;32.650;-16.902;2023-05-12T08:53:54;101810.47;;;21.92;61.70
61026;BME280;46911;32.650;-16.902;2023-05-12T08:55:56;101792.44;;;21.91;61.86
61026;BME280;46911;32.650;-16.902;2023-05-12T08:58:03;101813.34;;;22.08;61.44
61026;BME280;46911;32.650;-16.902;2023-05-12T09:00:10;101804.81;;;22.03;61.55
61026;BME280;46911;32.650;-16.902;2023-05-12T09:02:12;101815.59;;;22.31;60.37
61026;BME280;46911;32.650;-16.902;2023-05-12T09:04:19;101807.31;;;22.33;60.34
61026;BME280;46911;32.650;-16.902;2023-05-12T09:06:20;101805.94;;;22.47;59.16
61026;BME280;46911;32.650;-16.902;2023-05-12T09:08:21;101802.41;;;22.72;58.56
61026;BME280;46911;32.650;-16.902;2023-05-12T09:10:28;101817.34;;;22.68;59.25
61026;BME280;46911;32.650;-16.902;2023-05-12T09:12:34;101812.88;;;22.85;57.70
61026;BME280;46911;32.650;-16.902;2023-05-12T09:14:44;101806.47;;;22.68;58.45
61026;BME280;46911;32.650;-16.902;2023-05-12T09:16:47;101820.31;;;23.01;57.62
61026;BME280;46911;32.650;-16.902;2023-05-12T09:18:52;101818.78;;;22.81;58.07
61026;BME280;46911;32.650;-16.902;2023-05-12T09:20:55;101810.66;;;22.63;58.90
61026;BME280;46911;32.650;-16.902;2023-05-12T09:22:56;101818.50;;;22.66;58.78
61026;BME280;46911;32.650;-16.902;2023-05-12T09:24:57;101819.78;;;22.53;59.70
61026;BME280;46911;32.650;-16.902;2023-05-12T09:26:58;101814.22;;;22.63;58.63
61026;BME280;46911;32.650;-16.902;2023-05-12T09:29:06;101800.25;;;23.02;57.06
61026;BME280;46911;32.650;-16.902;2023-05-12T09:31:27;101805.69;;;22.76;58.24
61026;BME280;46911;32.650;-16.902;2023-05-12T09:33:33;101821.31;;;23.00;58.01
61026;BME280;46911;32.650;-16.902;2023-05-12T09:35:45;101799.91;;;23.66;56.25
61026;BME280;46911;32.650;-16.902;2023-05-12T09:37:46;101805.41;;;23.74;56.14
61026;BME280;46911;32.650;-16.902;2023-05-12T09:40:01;101811.97;;;23.98;55.11
61026;BME280;46911;32.650;-16.902;2023-05-12T09:42:02;101798.19;;;24.00;54.82
61026;BME280;46911;32.650;-16.902;2023-05-12T09:44:04;101803.03;;;24.55;54.13
61026;BME280;46911;32.650;-16.902;2023-05-12T09:46:08;101802.53;;;24.68;52.88
61026;BME280;46911;32.650;-16.902;2023-05-12T09:48:13;101820.56;;;24.28;54.58
61026;BME280;46911;32.650;-16.902;2023-05-12T09:50:14;101801.91;;;25.47;50.98
61026;BME280;46911;32.650;-16.902;2023-05-12T09:52:19;101796.66;;;25.69;50.63
61026;BME280;46911;32.650;-16.902;2023-05-12T09:54:30;101793.03;;;25.29;51.40
61026;BME280;46911;32.650;-16.902;2023-05-12T09:56:36;101794.00;;;24.96;52.35
61026;BME280;46911;32.650;-16.902;2023-05-12T09:58:42;101806.94;;;25.02;52.01
61026;BME280;46911;32.650;-16.902;2023-05-12T10:00:47;101820.28;;;24.81;52.92
61026;BME280;46911;32.650;-16.902;2023-05-12T10:02:53;101813.09;;;24.71;52.78
61026;BME280;46911;32.650;-16.902;2023-05-12T10:04:57;101813.34;;;25.51;51.18
61026;BME280;46911;32.650;-16.902;2023-05-12T10:07:06;101811.66;;;25.25;51.34
61026;BME280;46911;32.650;-16.902;2023-05-12T10:09:18;101807.22;;;25.24;51.10
61026;BME280;46911;32.650;-16.902;2023-05-12T10:11:21;101807.38;;;25.31;51.29
61026;BME280;46911;32.650;-16.902;2023-05-12T10:13:24;101802.44;;;25.34;51.64
61026;BME280;46911;32.650;-16.902;2023-05-12T10:15:28;101810.53;;;25.03;52.32
61026;BME280;46911;32.650;-16.902;2023-05-12T10:17:30;101818.97;;;25.33;51.92
61026;BME280;46911;32.650;-16.902;2023-05-12T10:19:31;101815.41;;;25.40;51.16
61026;BME280;46911;32.650;-16.902;2023-05-12T10:21:33;101791.53;;;25.26;51.10
61026;BME280;46911;32.650;-16.902;2023-05-12T10:23:38;101809.38;;;25.53;51.49
61026;BME280;46911;32.650;-16.902;2023-05-12T10:25:40;101816.69;;;25.61;50.62
61026;BME280;46911;32.650;-16.902;2023-05-12T10:27:43;101813.44;;;25.66;50.57
61026;BME280;46911;32.650;-16.902;2023-05-12T10:29:47;101795.97;;;25.11;51.77
61026;BME280;46911;32.650;-16.902;2023-05-12T10:31:48;101793.13;;;24.54;53.31
61026;BME280;46911;32.650;-16.902;2023-05-12T10:34:00;101795.84;;;24.30;53.81